< < Back
Terminal Aerodrome Forecast


Current Version              Previous Versions:   1  2  3  4  5  6  7  8  9  

Terminal Aerodrome Forecast

608
FTUS44 KBMX 271100 RRA
TAFTCL
TAF
KTCL 271141Z 2712/2812 35010KT P6SM OVC025
     FM271700 35010KT P6SM BKN025
     FM272100 35008KT P6SM SCT025=



Latest METAR

354
SAUS70 KWBC 280500 RRC
MTRTCL
METAR KTCL 280453Z AUTO 03009KT 10SM CLR 01/M08 A3050 RMK AO2 SLP330
T00111078


USA.gov is the U.S. government's official web portal to all federal, state and local government web resources and services.